Odessa, Minnesota
Current Conditions -  °F | °C
As of 1:54 PM on Thursday 30 Oct 2014 (Local Time) from KVVV Reporting Station
Overcast Overcast  
Wind Chill: 35°   Ceiling: 1000
Heat Index: 43°   Visibility: 10mi
Dew Point: 37°   Wind: 18mph
Humidity: 81%   Direction: 350°N
Pressure: 30.21"   Gusts: NA
Location:  45.26°N, 96.33°W
Report Text: KVVV 301854Z AUTO 35016KT 10SM OVC010 06/03 A3021 RMK AO2
Loading
Personal Weather Stations






























Interactive Weather Map
Tropical Storm Tracking
New forecast layout! Learn more

10-Day Weather Forecast

Advertisements
Track Severe Weather on mobile